Time;durP1;ratioP1;P1;durP2;ratioP2;P2;SDS_P1;SDS_P2;PMS_P1;PMS_P2;Temp;Humidity;BMP_temperature;BMP_pressure;BME280_temperature;BME280_humidity;BME280_pressure;Samples;Min_cycle;Max_cycle;Signal;HPM_P1;HPM_P2
2021/12/13 00:01:00;;;;;;;6.43;2.78;;;8.60;99.90;;;8.64;100.00;102012.00;5249973;28;20395;-83
2021/12/13 00:03:42;;;;;;;5.35;3.22;;;8.60;99.90;;;8.64;100.00;102006.81;5250187;28;20399;-83
2021/12/13 00:06:20;;;;;;;5.38;2.78;;;8.60;99.90;;;8.64;100.00;102008.53;5250152;28;20195;-83
2021/12/13 00:08:57;;;;;;;4.10;2.70;;;8.70;99.90;;;8.64;100.00;102011.13;5249779;28;20165;-81
2021/12/13 00:11:33;;;;;;;6.18;2.90;;;8.60;99.90;;;8.63;100.00;102006.72;5249992;28;20052;-81
2021/12/13 00:14:13;;;;;;;6.90;3.00;;;8.70;99.90;;;8.63;100.00;102001.53;5250096;28;20052;-82
2021/12/13 00:16:57;;;;;;;7.05;2.95;;;8.60;99.90;;;8.61;100.00;102000.56;5249875;28;20060;-80
2021/12/13 00:19:36;;;;;;;6.65;3.15;;;8.70;99.90;;;8.65;100.00;102006.00;5250067;28;20048;-81
2021/12/13 00:22:14;;;;;;;7.22;2.63;;;8.70;99.90;;;8.67;100.00;102007.03;5249434;28;20044;-82
2021/12/13 00:24:48;;;;;;;9.25;2.65;;;8.70;99.90;;;8.67;100.00;102006.09;5250490;28;20071;-81
2021/12/13 00:27:26;;;;;;;6.18;2.75;;;8.70;99.90;;;8.67;100.00;102006.09;5249880;28;20052;-82
2021/12/13 00:30:08;;;;;;;8.35;3.03;;;8.70;99.90;;;8.70;100.00;102016.69;5250410;28;20646;-83
2021/12/13 00:32:52;;;;;;;4.72;2.97;;;8.70;99.90;;;8.68;100.00;102008.81;5250811;28;20319;-81
2021/12/13 00:35:34;;;;;;;5.22;2.50;;;8.70;99.90;;;8.63;100.00;102004.13;5249913;28;20131;-81
2021/12/13 00:38:09;;;;;;;4.75;2.50;;;8.70;99.90;;;8.72;100.00;102017.69;5252309;28;20490;-82
2021/12/13 00:40:47;;;;;;;4.55;2.20;;;8.70;99.90;;;8.72;100.00;102009.00;5250238;28;20052;-82
2021/12/13 00:43:26;;;;;;;6.57;3.05;;;8.70;99.90;;;8.73;100.00;102014.28;5249773;28;20047;-82
2021/12/13 00:46:03;;;;;;;6.72;2.80;;;8.70;99.90;;;8.72;100.00;102019.38;5249816;28;20383;-80
2021/12/13 00:48:40;;;;;;;4.90;2.88;;;8.70;99.90;;;8.72;100.00;102014.19;5250121;28;20057;-82
2021/12/13 00:51:20;;;;;;;4.50;2.78;;;8.70;99.90;;;8.71;100.00;102023.69;5249526;28;20127;-81
2021/12/13 00:53:55;;;;;;;4.55;2.28;;;8.70;99.90;;;8.72;100.00;102016.78;5250088;28;20075;-80
2021/12/13 00:56:58;;;;;;;5.32;2.30;;;8.70;99.90;;;8.72;100.00;102015.09;5251435;28;20051;-81
2021/12/13 00:59:33;;;;;;;4.93;2.30;;;8.70;99.90;;;8.73;100.00;102022.06;5253608;28;20059;-83
2021/12/13 01:02:10;;;;;;;5.07;2.45;;;8.70;99.90;;;8.75;100.00;102024.78;5251101;28;20045;-81
2021/12/13 01:04:57;;;;;;;2.95;2.08;;;8.70;99.90;;;8.74;100.00;102026.50;5252223;28;20514;-80
2021/12/13 01:08:10;;;;;;;4.10;2.00;;;8.80;99.90;;;8.77;100.00;102024.06;5253382;28;20060;-80
2021/12/13 01:11:19;;;;;;;4.55;2.40;;;8.80;99.90;;;8.74;100.00;102023.91;5254526;28;20048;-82
2021/12/13 01:14:18;;;;;;;5.68;2.28;;;8.80;99.90;;;8.72;100.00;102028.09;5253866;28;20045;-82
2021/12/13 01:17:00;;;;;;;4.63;2.47;;;8.80;99.90;;;8.74;100.00;102021.31;5253435;28;20057;-80
2021/12/13 01:19:48;;;;;;;5.15;2.70;;;8.80;99.90;;;8.70;100.00;102021.91;5252889;28;20072;-81
2021/12/13 01:22:40;;;;;;;3.63;2.33;;;8.80;99.90;;;8.71;100.00;102021.09;5253170;28;20044;-80
2021/12/13 01:25:40;;;;;;;4.85;2.28;;;8.80;99.90;;;8.72;100.00;102027.19;5252813;28;20110;-83
2021/12/13 01:28:22;;;;;;;4.47;2.35;;;8.70;99.90;;;8.74;100.00;102022.97;5253634;28;20052;-82
2021/12/13 01:30:56;;;;;;;;;;;8.80;99.90;;;8.75;100.00;102027.41;5255096;28;20088;-83
2021/12/13 01:33:32;;;;;;;4.55;2.10;;;8.80;99.90;;;8.74;100.00;102030.78;5254580;28;20370;-82
2021/12/13 01:36:08;;;;;;;3.42;2.25;;;8.80;99.90;;;8.74;100.00;102028.16;5256254;28;20076;-84
2021/12/13 01:38:54;;;;;;;6.38;2.85;;;8.80;99.90;;;8.74;100.00;102034.28;5257678;28;20052;-82
2021/12/13 01:41:35;;;;;;;4.88;2.33;;;8.80;99.90;;;8.75;100.00;102038.69;5253205;28;20056;-82
2021/12/13 01:44:12;;;;;;;3.58;1.98;;;8.80;99.90;;;8.65;100.00;102034.59;5252543;28;20486;-81
2021/12/13 01:46:49;;;;;;;5.00;2.28;;;8.80;99.90;;;8.75;100.00;102041.28;5253011;28;20049;-82
2021/12/13 01:49:28;;;;;;;4.57;2.10;;;8.80;99.90;;;8.76;100.00;102032.69;5252110;28;20051;-79
2021/12/13 01:52:02;;;;;;;6.88;2.58;;;8.80;99.90;;;8.77;100.00;102034.47;5252461;28;20059;-82
2021/12/13 01:54:40;;;;;;;4.35;2.35;;;8.80;99.90;;;8.73;100.00;102024.69;5252405;28;20071;-81
2021/12/13 01:57:24;;;;;;;3.15;1.90;;;8.80;99.90;;;8.74;100.00;102029.09;5252777;28;20045;-81
2021/12/13 02:00:08;;;;;;;5.30;2.13;;;8.80;99.90;;;8.73;100.00;102014.28;5252435;28;20049;-81
2021/12/13 02:02:44;;;;;;;4.60;2.33;;;8.80;99.90;;;8.70;100.00;102032.31;5252830;28;20045;-83
2021/12/13 02:05:19;;;;;;;3.33;2.03;;;8.80;99.90;;;8.67;100.00;102026.88;5252375;28;20068;-81
2021/12/13 02:07:57;;;;;;;3.88;2.13;;;8.70;99.90;;;8.67;100.00;102030.41;5252404;28;20135;-82
2021/12/13 02:10:36;;;;;;;3.25;1.80;;;8.70;99.90;;;8.64;100.00;102031.91;5252710;28;20053;-81
2021/12/13 02:13:15;;;;;;;5.43;1.95;;;8.70;99.90;;;8.64;100.00;102037.13;5251859;28;20415;-81
2021/12/13 02:18:44;;;;;;;4.32;2.22;;;8.70;99.90;;;8.64;100.00;102040.59;5251784;28;20056;-81
2021/12/13 02:21:25;;;;;;;6.45;2.65;;;8.70;99.90;;;8.68;100.00;102034.81;5251762;28;20421;-84
2021/12/13 02:24:02;;;;;;;4.30;2.22;;;8.70;99.90;;;8.68;100.00;102041.72;5251970;28;20135;-81
2021/12/13 02:26:48;;;;;;;4.53;2.15;;;8.70;99.90;;;8.67;100.00;102047.69;5252374;28;20063;-81
2021/12/13 02:29:35;;;;;;;4.50;2.00;;;8.70;99.90;;;8.67;100.00;102039.88;5251159;28;20059;-81
2021/12/13 02:32:11;;;;;;;4.07;2.08;;;8.70;99.90;;;8.67;100.00;102042.50;5251622;28;20504;-81
2021/12/13 02:34:44;;;;;;;5.95;2.35;;;8.70;99.90;;;8.67;100.00;102042.50;5251535;28;20055;-82
2021/12/13 02:37:16;;;;;;;4.45;2.55;;;8.70;99.90;;;8.69;100.00;102040.91;5252214;28;20053;-81
2021/12/13 02:39:56;;;;;;;4.45;2.22;;;8.70;99.90;;;8.69;100.00;102030.50;5252573;28;20083;-84
2021/12/13 02:42:30;;;;;;;3.63;2.20;;;8.70;99.90;;;8.67;100.00;102030.41;5252066;28;20078;-81
2021/12/13 02:45:14;;;;;;;5.30;3.03;;;8.70;99.90;;;8.69;100.00;102043.50;5251926;28;20055;-82
2021/12/13 02:48:01;;;;;;;3.67;2.30;;;8.70;99.90;;;8.68;100.00;102040.00;5251855;28;20052;-83
2021/12/13 02:50:43;;;;;;;4.10;2.28;;;8.70;99.90;;;8.69;100.00;102038.31;5252100;28;20434;-83
2021/12/13 02:53:20;;;;;;;;;;;8.70;99.90;;;8.69;100.00;102040.91;5253592;28;20056;-82
2021/12/13 02:55:54;;;;;;;3.92;2.38;;;8.70;99.90;;;8.69;100.00;102041.81;5251138;28;20014;-83
2021/12/13 02:58:29;;;;;;;4.32;2.22;;;8.70;99.90;;;8.69;100.00;102035.72;5251531;28;20048;-82
2021/12/13 03:01:09;;;;;;;;;;;8.80;99.90;;;8.70;100.00;102037.50;5251614;28;20056;-81
2021/12/13 03:03:47;;;;;;;4.10;2.30;;;8.70;99.90;;;8.70;100.00;102037.50;5250897;28;19920;-82
2021/12/13 03:06:30;;;;;;;3.90;2.33;;;8.70;99.90;;;8.70;100.00;102037.50;5250374;28;20044;-81
2021/12/13 03:09:13;;;;;;;5.35;2.88;;;8.70;99.90;;;8.68;100.00;102036.53;5251079;28;20048;-81
2021/12/13 03:11:47;;;;;;;4.18;2.47;;;8.70;99.90;;;8.70;100.00;102043.59;5250909;28;20455;-82
2021/12/13 03:14:24;;;;;;;5.85;2.90;;;8.70;99.90;;;8.69;100.00;102041.81;5250841;28;20044;-81
2021/12/13 03:17:04;;;;;;;4.15;2.22;;;8.70;99.90;;;8.70;100.00;102047.91;5250362;28;20067;-80
2021/12/13 03:19:52;;;;;;;4.35;2.53;;;8.70;99.90;;;8.71;100.00;102044.50;5250710;28;20048;-81
2021/12/13 03:23:04;;;;;;;4.90;2.80;;;8.70;99.90;;;8.71;100.00;102049.69;5250871;28;20054;-82
2021/12/13 03:26:00;;;;;;;4.55;2.67;;;8.70;99.90;;;8.72;100.00;102050.59;5250603;28;20499;-82
2021/12/13 03:28:57;;;;;;;4.95;3.00;;;8.70;99.90;;;8.70;100.00;102050.50;5250407;28;20044;-81
2021/12/13 03:31:36;;;;;;;4.88;2.70;;;8.70;99.90;;;8.70;100.00;102043.59;5251381;28;20055;-81
2021/12/13 03:34:13;;;;;;;5.78;2.83;;;8.70;99.90;;;8.71;100.00;102057.50;5250423;28;20046;-81
2021/12/13 03:37:01;;;;;;;5.13;2.90;;;8.70;99.90;;;8.71;100.00;102054.88;5250581;28;20056;-82
2021/12/13 03:39:38;;;;;;;4.57;2.60;;;8.70;99.90;;;8.71;100.00;102054.88;5250591;28;20083;-80
2021/12/13 03:42:18;;;;;;;3.78;2.40;;;8.70;99.90;;;8.72;100.00;102051.47;5250649;28;20075;-81
2021/12/13 03:44:56;;;;;;;5.75;2.90;;;8.70;99.90;;;8.72;100.00;102059.28;5249958;28;20052;-82
2021/12/13 03:47:36;;;;;;;4.75;2.67;;;8.70;99.90;;;8.69;100.00;102052.19;5251068;28;20413;-82
2021/12/13 03:50:13;;;;;;;5.60;2.83;;;8.70;99.90;;;8.74;100.00;102052.50;5250559;28;20048;-81
2021/12/13 03:52:49;;;;;;;4.75;2.70;;;8.80;99.90;;;8.73;100.00;102058.47;5250855;28;20040;-82
2021/12/13 03:55:27;;;;;;;4.32;2.38;;;8.80;99.90;;;8.74;100.00;102057.69;5250312;28;20052;-83
2021/12/13 03:58:02;;;;;;;4.00;2.40;;;8.80;99.90;;;8.75;100.00;102056.88;5251016;28;20513;-84
2021/12/13 04:00:49;;;;;;;3.00;2.10;;;8.80;99.90;;;8.75;100.00;102061.19;5250470;28;20049;-81
2021/12/13 04:03:22;;;;;;;3.78;2.25;;;8.80;99.90;;;8.77;100.00;102060.47;5251136;28;20049;-80
2021/12/13 04:05:56;;;;;;;5.10;2.60;;;8.80;99.90;;;8.77;100.00;102064.78;5250931;28;20053;-83
2021/12/13 04:08:29;;;;;;;2.75;1.85;;;8.80;99.90;;;8.76;100.00;102053.47;5250380;28;20514;-81
2021/12/13 04:11:08;;;;;;;3.88;2.13;;;8.80;99.90;;;8.76;100.00;102065.59;5251456;28;20139;-81
2021/12/13 04:13:54;;;;;;;4.05;2.20;;;8.80;99.90;;;8.74;100.00;102064.56;5250581;28;20510;-83
2021/12/13 04:16:45;;;;;;;3.33;2.05;;;8.80;99.90;;;8.74;100.00;102065.50;5251530;28;20409;-82
2021/12/13 04:19:23;;;;;;;3.63;2.00;;;8.80;99.90;;;8.75;100.00;102071.59;5251422;28;20049;-82
2021/12/13 04:22:02;;;;;;;21.13;10.55;;;8.70;99.90;;;8.73;100.00;102074.06;5251165;28;20417;-81
2021/12/13 04:24:38;;;;;;;10.65;5.97;;;8.80;99.90;;;8.77;100.00;102075.19;5250210;28;20050;-81
2021/12/13 04:27:24;;;;;;;8.70;5.28;;;8.80;99.90;;;8.75;100.00;102076.78;5252020;28;20044;-85
2021/12/13 04:30:15;;;;;;;12.07;5.93;;;8.80;99.90;;;8.73;100.00;102074.06;5252342;28;20048;-82
2021/12/13 04:32:54;;;;;;;3.78;2.55;;;8.80;99.90;;;8.73;100.00;102073.19;5258595;28;20078;-83
2021/12/13 04:35:29;;;;;;;9.15;3.60;;;8.80;99.90;;;8.72;100.00;102076.59;5258720;28;20080;-80
2021/12/13 04:38:05;;;;;;;13.70;6.95;;;8.80;99.90;;;8.71;100.00;102080.88;5254836;28;20063;-82
2021/12/13 04:40:41;;;;;;;23.35;11.60;;;8.80;99.90;;;8.67;100.00;102084.09;5254086;28;20552;-81
2021/12/13 04:43:18;;;;;;;8.27;3.92;;;8.70;99.90;;;8.67;100.00;102087.63;5254566;28;20048;-80
2021/12/13 04:45:56;;;;;;;7.93;3.95;;;8.70;99.90;;;8.66;100.00;102088.38;5253785;28;20068;-81
2021/12/13 04:48:34;;;;;;;7.85;3.50;;;8.70;99.90;;;8.65;100.00;102078.78;5253989;28;20053;-80
2021/12/13 04:51:09;;;;;;;5.40;2.90;;;8.70;99.90;;;8.68;100.00;102083.31;5253959;28;20049;-81
2021/12/13 04:53:45;;;;;;;22.33;12.95;;;8.70;99.90;;;8.64;100.00;102069.22;5253405;28;20513;-80
2021/12/13 04:56:23;;;;;;;6.25;3.53;;;8.70;99.90;;;8.63;100.00;102077.81;5253909;28;20062;-80
2021/12/13 04:58:59;;;;;;;5.90;2.90;;;8.70;99.90;;;8.63;100.00;102083.00;5253972;28;20052;-81
2021/12/13 05:01:32;;;;;;;5.18;3.08;;;8.70;99.90;;;8.62;100.00;102082.94;5253888;28;20053;-81
2021/12/13 05:04:08;;;;;;;4.05;2.30;;;8.60;99.90;;;8.61;100.00;102088.94;5253383;28;20068;-81
2021/12/13 05:06:42;;;;;;;5.25;2.40;;;8.60;99.90;;;8.61;100.00;102084.63;5253560;28;20045;-82
2021/12/13 05:09:18;;;;;;;4.80;2.28;;;8.60;99.90;;;8.65;100.00;102093.50;5253499;28;20052;-81
2021/12/13 05:11:56;;;;;;;3.88;2.38;;;8.60;99.90;;;8.63;100.00;102087.31;5253526;28;20048;-80
2021/12/13 05:14:33;;;;;;;4.03;2.20;;;8.60;99.90;;;8.63;100.00;102092.50;5253203;28;20052;-80
2021/12/13 05:17:11;;;;;;;3.25;1.70;;;8.60;99.90;;;8.65;100.00;102096.09;5253541;28;20044;-81
2021/12/13 05:19:48;;;;;;;3.67;2.55;;;8.60;99.90;;;8.64;100.00;102094.31;5253202;28;20044;-82
2021/12/13 05:22:24;;;;;;;4.25;2.63;;;8.60;99.90;;;8.63;100.00;102085.63;5252957;28;20048;-80
2021/12/13 05:25:00;;;;;;;4.82;2.65;;;8.70;99.90;;;8.63;100.00;102089.91;5253658;28;20045;-81
2021/12/13 05:27:36;;;;;;;3.72;2.40;;;8.70;99.90;;;8.64;100.00;102090.00;5253628;28;20051;-81
2021/12/13 05:30:15;;;;;;;2.53;1.80;;;8.70;99.90;;;8.63;100.00;102093.41;5252913;28;20053;-81
2021/12/13 05:32:52;;;;;;;5.28;2.53;;;8.70;99.90;;;8.63;100.00;102089.91;5253352;28;20057;-82
2021/12/13 05:35:31;;;;;;;4.47;2.22;;;8.70;99.90;;;8.59;100.00;102082.72;5253066;28;20053;-84
2021/12/13 05:38:12;;;;;;;5.82;2.90;;;8.70;99.90;;;8.62;100.00;102095.91;5253583;28;20045;-81
2021/12/13 05:40:46;;;;;;;3.53;1.90;;;8.70;99.90;;;8.63;100.00;102090.81;5253004;28;20049;-80
2021/12/13 05:43:24;;;;;;;3.95;2.05;;;8.70;99.90;;;8.58;100.00;102084.41;5252960;28;20566;-82
2021/12/13 05:46:01;;;;;;;5.13;2.40;;;8.70;99.90;;;8.65;100.00;102091.78;5252293;28;20045;-82
2021/12/13 05:51:29;;;;;;;4.20;2.15;;;8.70;99.90;;;8.69;100.00;102092.91;5290561;22;20078;-85
2021/12/13 05:54:04;;;;;;;;;;;8.70;99.90;;;8.65;100.00;102080.50;5272042;28;20041;-88
2021/12/13 05:56:41;;;;;;;5.72;2.78;;;8.70;99.90;;;8.61;100.00;102086.34;5280539;28;19924;-85
2021/12/13 05:59:20;;;;;;;6.50;2.25;;;8.70;99.90;;;8.59;100.00;102074.91;5280007;28;20062;-85
2021/12/13 06:02:13;;;;;;;3.63;2.22;;;8.70;99.90;;;8.71;100.00;102101.69;5279561;28;20044;-84
2021/12/13 06:04:56;;;;;;;6.40;2.33;;;8.70;99.90;;;8.70;100.00;102095.59;5280298;28;20040;-83
2021/12/13 06:07:33;;;;;;;5.55;2.42;;;8.70;99.90;;;8.69;100.00;102095.50;5280085;28;20052;-85
2021/12/13 06:10:10;;;;;;;3.35;2.00;;;8.80;99.90;;;8.68;100.00;102098.91;5280162;28;20044;-85
2021/12/13 06:12:51;;;;;;;4.82;2.20;;;8.70;99.90;;;8.69;100.00;102105.91;5278874;28;20048;-84
2021/12/13 06:15:29;;;;;;;6.10;2.47;;;8.70;99.90;;;8.67;100.00;102104.88;5279903;28;20413;-85
2021/12/13 06:18:16;;;;;;;4.78;2.80;;;8.70;99.90;;;8.66;100.00;102098.78;5278396;28;20047;-84
2021/12/13 06:20:56;;;;;;;5.75;2.42;;;8.80;99.90;;;8.67;100.00;102108.41;5281222;28;20048;-85
2021/12/13 06:23:33;;;;;;;4.55;2.80;;;8.70;99.90;;;8.66;100.00;102113.50;5279337;28;20054;-83
2021/12/13 06:26:09;;;;;;;8.30;2.83;;;8.70;99.90;;;8.67;100.00;102110.09;5280364;28;20062;-85
2021/12/13 06:28:44;;;;;;;4.88;3.03;;;8.70;99.90;;;8.65;100.00;102109.09;5280504;28;20055;-85
2021/12/13 06:31:20;;;;;;;4.43;2.22;;;8.70;99.90;;;8.68;100.00;102107.59;5280315;28;20416;-85
2021/12/13 06:33:55;;;;;;;7.82;2.45;;;8.70;99.90;;;8.67;100.00;102104.88;5279341;28;20048;-84
2021/12/13 06:36:30;;;;;;;5.88;2.58;;;8.70;99.90;;;8.70;100.00;102107.69;5280244;28;20421;-84
2021/12/13 06:39:07;;;;;;;5.75;2.50;;;8.70;99.90;;;8.70;100.00;102099.91;5279969;28;20043;-84
2021/12/13 06:41:45;;;;;;;4.47;2.50;;;8.70;99.90;;;8.71;100.00;102106.88;5280318;28;20120;-84
2021/12/13 06:44:22;;;;;;;4.45;2.60;;;8.70;99.90;;;8.72;100.00;102108.69;5279812;28;20130;-83
2021/12/13 06:46:59;;;;;;;6.30;2.63;;;8.70;99.90;;;8.73;100.00;102099.19;5280730;28;20047;-84
2021/12/13 06:49:36;;;;;;;5.38;2.63;;;8.70;99.90;;;8.73;100.00;102110.47;5279621;28;20056;-85
2021/12/13 06:52:20;;;;;;;5.13;2.33;;;8.80;99.90;;;8.75;100.00;102119.28;5280609;28;20047;-85
2021/12/13 06:54:59;;;;;;;5.13;2.42;;;8.70;99.90;;;8.76;100.00;102120.19;5280571;28;20551;-85
2021/12/13 06:57:38;;;;;;;3.78;2.10;;;8.80;99.90;;;8.75;100.00;102114.09;5283322;28;20054;-84
2021/12/13 07:00:15;;;;;;;5.43;2.40;;;8.80;99.90;;;8.76;100.00;102110.69;5280552;28;20054;-84
2021/12/13 07:02:52;;;;;;;4.18;1.92;;;8.80;99.90;;;8.76;100.00;102113.28;5279403;28;20059;-84
2021/12/13 07:05:27;;;;;;;3.97;2.05;;;8.80;99.90;;;8.77;100.00;102106.38;5278637;28;20048;-85
2021/12/13 07:08:03;;;;;;;4.15;2.22;;;8.80;99.90;;;8.79;100.00;102109.97;5276598;28;20050;-85
2021/12/13 07:10:41;;;;;;;4.10;1.88;;;8.80;99.90;;;8.79;100.00;102110.84;5277704;28;20044;-85
2021/12/13 07:13:25;;;;;;;5.63;1.98;;;8.80;99.90;;;8.82;100.00;102113.66;5277300;28;20051;-85
2021/12/13 07:16:00;;;;;;;3.78;2.17;;;8.80;99.90;;;8.84;100.00;102119.84;5277817;28;20425;-87
2021/12/13 07:18:44;;;;;;;3.45;2.13;;;8.90;99.90;;;8.84;100.00;102112.06;5278372;28;20050;-84
2021/12/13 07:21:21;;;;;;;5.03;2.10;;;8.80;99.90;;;8.82;100.00;102113.66;5278937;28;20126;-85
2021/12/13 07:24:02;;;;;;;3.75;2.03;;;8.80;99.90;;;8.85;100.00;102116.44;5277547;28;20044;-84
2021/12/13 07:26:41;;;;;;;4.15;2.13;;;8.80;99.90;;;8.86;100.00;102118.25;5278207;28;20048;-84
2021/12/13 07:29:20;;;;;;;4.10;2.00;;;8.90;99.90;;;8.86;100.00;102118.25;5282519;28;20036;-85
2021/12/13 07:32:06;;;;;;;3.72;1.83;;;8.90;99.90;;;8.86;100.00;102126.03;5292986;28;20103;-86
2021/12/13 07:34:59;;;;;;;7.03;2.55;;;8.90;99.90;;;8.88;100.00;102126.16;5292084;28;20048;-86
2021/12/13 07:37:46;;;;;;;4.80;2.42;;;8.90;99.90;;;8.82;100.00;102112.78;5276286;28;20043;-84
2021/12/13 07:40:29;;;;;;;4.88;2.75;;;8.90;99.90;;;8.89;100.00;102126.25;5272410;28;20047;-84
2021/12/13 07:43:21;;;;;;;6.03;2.75;;;8.90;99.90;;;8.85;100.00;102132.03;5272159;28;20044;-83
2021/12/13 07:45:59;;;;;;;6.30;3.10;;;8.90;99.90;;;8.83;100.00;102128.47;5271548;28;20147;-84
2021/12/13 07:48:36;;;;;;;5.35;2.72;;;8.90;99.90;;;8.85;100.00;102136.34;5271952;28;20051;-85
2021/12/13 07:51:13;;;;;;;5.60;2.53;;;8.90;99.90;;;8.84;100.00;102137.16;5271871;28;20052;-85
2021/12/13 07:53:52;;;;;;;7.70;2.85;;;8.90;99.90;;;8.76;100.00;102136.69;5273554;28;20044;-83
2021/12/13 07:56:39;;;;;;;5.18;3.15;;;8.90;99.90;;;8.87;100.00;102153.88;5273890;28;20055;-85
2021/12/13 07:59:18;;;;;;;5.43;3.15;;;8.90;99.90;;;8.86;100.00;102152.03;5273431;28;20044;-86
2021/12/13 08:01:56;;;;;;;4.85;2.88;;;8.90;99.90;;;8.87;100.00;102153.88;5272902;28;20485;-84
2021/12/13 08:04:33;;;;;;;7.03;3.15;;;8.90;99.90;;;8.87;100.00;102158.19;5273418;28;20425;-83
2021/12/13 08:07:10;;;;;;;5.10;2.95;;;8.90;99.90;;;8.89;100.00;102160.06;5278279;28;20055;-85
2021/12/13 08:09:46;;;;;;;6.63;3.33;;;8.90;99.90;;;8.90;100.00;102167.06;5278144;28;20056;-84
2021/12/13 08:12:23;;;;;;;6.35;3.20;;;8.90;99.90;;;8.93;100.00;102167.25;5277557;28;20048;-86
2021/12/13 08:15:11;;;;;;;7.32;3.35;;;8.90;99.90;;;8.97;100.00;102177.03;5276803;28;20044;-85
2021/12/13 08:17:49;;;;;;;9.13;3.25;;;8.90;99.90;;;8.97;100.00;102187.44;5277459;28;20056;-83
2021/12/13 08:20:25;;;;;;;7.45;3.58;;;9.00;99.90;;;8.95;100.00;102176.06;5276407;28;20044;-84
2021/12/13 08:23:01;;;;;;;5.95;3.25;;;9.00;99.90;;;8.95;100.00;102186.44;5276554;28;20047;-84
2021/12/13 08:25:39;;;;;;;8.00;3.45;;;9.00;99.90;;;9.00;100.00;102193.63;5276104;28;20395;-86
2021/12/13 08:28:15;;;;;;;3.13;2.03;;;9.00;99.90;;;9.02;100.00;102200.75;5275931;28;20494;-89
2021/12/13 08:30:52;;;;;;;5.97;3.42;;;9.00;99.90;;;9.04;100.00;102204.34;5275410;28;20117;-88
2021/12/13 08:33:31;;;;;;;6.95;3.35;;;9.10;99.90;;;9.07;100.00;102201.03;5274239;28;20054;-88
2021/12/13 08:36:10;;;;;;;6.32;3.42;;;9.00;99.90;;;9.10;100.00;102206.44;5273389;28;20044;-92
2021/12/13 08:38:48;;;;;;;7.45;3.20;;;9.10;99.90;;;9.06;100.00;102200.13;5250643;28;20040;-87
2021/12/13 08:41:28;;;;;;;5.35;2.80;;;9.10;99.90;;;9.15;100.00;102215.44;5253764;28;20052;-90
2021/12/13 08:44:06;;;;;;;7.45;2.85;;;9.10;99.90;;;9.16;100.00;102219.81;5255954;28;20048;-90
2021/12/13 08:46:45;;;;;;;6.82;3.40;;;9.20;99.90;;;9.17;100.00;102216.41;5254111;28;20079;-92
2021/12/13 08:49:25;;;;;;;8.57;2.95;;;9.10;99.90;;;9.18;100.00;102221.72;5254682;28;20047;-90
2021/12/13 08:52:08;;;;;;;6.22;2.97;;;9.20;99.90;;;9.21;100.00;102219.31;5254223;28;20422;-89
2021/12/13 08:54:54;;;;;;;7.03;3.08;;;9.20;99.90;;;9.26;100.00;102227.41;5241452;28;20048;-89
2021/12/13 08:57:53;;;;;;;7.15;3.00;;;9.20;99.90;;;9.25;100.00;102228.19;5238517;28;20049;-88
2021/12/13 09:00:46;;;;;;;6.82;3.55;;;9.20;99.90;;;9.25;100.00;102223.00;5235867;28;20053;-88
2021/12/13 09:03:34;;;;;;;6.78;3.00;;;9.20;99.90;;;9.26;100.00;102217.00;5232600;28;20053;-89
2021/12/13 09:06:20;;;;;;;6.50;2.80;;;9.20;99.90;;;9.28;100.00;102220.59;5232799;28;20053;-92
2021/12/13 09:08:59;;;;;;;4.95;2.70;;;9.20;99.90;;;9.31;100.00;102218.16;5233977;28;20053;-88
2021/12/13 09:11:36;;;;;;;5.05;2.28;;;9.30;99.90;;;9.74;100.00;102220.81;5235233;28;20045;-83
2021/12/13 09:14:17;;;;;;;6.03;3.40;;;9.60;99.90;;;9.95;100.00;102216.00;5232861;28;20049;-90
2021/12/13 09:17:07;;;;;;;8.32;3.45;;;9.90;99.90;;;9.85;100.00;102198.94;5231146;28;20053;-90
2021/12/13 09:19:54;;;;;;;4.68;2.85;;;9.90;99.90;;;9.93;100.00;102208.09;5234211;28;20056;-90
2021/12/13 09:22:30;;;;;;;4.47;2.72;;;10.00;99.90;;;9.94;100.00;102207.28;5233763;28;20124;-90
2021/12/13 09:25:08;;;;;;;5.38;2.70;;;10.00;99.90;;;9.95;99.91;102221.22;5232694;28;20135;-88
2021/12/13 09:27:51;;;;;;;8.25;3.00;;;9.90;99.90;;;9.98;99.37;102211.00;5232724;28;20045;-91
2021/12/13 09:30:41;;;;;;;7.60;2.70;;;9.90;99.90;;;9.99;98.82;102218.00;5231833;28;20148;-90
2021/12/13 09:33:20;;;;;;;5.90;2.90;;;9.90;99.90;;;10.05;98.81;102221.88;5231384;28;20053;-90
2021/12/13 09:35:57;;;;;;;5.82;2.83;;;9.90;99.90;;;10.12;98.49;102225.72;5231063;28;20483;-89
2021/12/13 09:38:42;;;;;;;6.80;2.80;;;10.00;99.90;;;10.22;98.38;102229.75;5231859;28;20060;-88
2021/12/13 09:41:30;;;;;;;6.85;3.00;;;10.00;99.90;;;10.27;97.92;102230.97;5232066;28;20567;-88
2021/12/13 09:44:20;;;;;;;5.78;2.88;;;10.00;99.90;;;10.31;97.68;102231.25;5232128;28;20052;-90
2021/12/13 09:47:04;;;;;;;7.05;3.15;;;10.10;99.90;;;10.36;96.36;102223.69;5231532;28;20059;-92
2021/12/13 09:49:41;;;;;;;5.55;2.80;;;10.10;99.90;;;10.35;96.06;102224.50;5232209;28;20529;-91
2021/12/13 09:52:24;;;;;;;7.07;2.90;;;10.20;99.90;;;10.35;96.17;102231.41;5232268;28;20147;-91
2021/12/13 09:55:02;;;;;;;7.47;3.05;;;10.20;99.90;;;10.32;96.15;102227.84;5240135;28;20058;-88
2021/12/13 09:57:43;;;;;;;7.65;2.70;;;10.20;99.90;;;10.33;96.41;102226.13;5247682;28;20048;-89
2021/12/13 10:00:19;;;;;;;;;;;10.20;99.90;;;10.37;95.78;102221.97;5249331;28;20059;-88
2021/12/13 10:02:56;;;;;;;6.78;3.38;;;10.20;99.90;;;10.38;95.91;102218.59;5251931;28;20122;-85
2021/12/13 10:05:35;;;;;;;8.00;3.00;;;10.30;99.90;;;10.40;95.85;102224.78;5252685;28;20052;-88
2021/12/13 10:08:13;;;;;;;7.00;2.70;;;10.30;99.90;;;10.43;95.93;102231.09;5242506;28;20055;-88
2021/12/13 10:10:49;;;;;;;6.60;2.72;;;10.30;99.90;;;10.44;95.68;102225.06;5230471;28;20483;-88
2021/12/13 10:13:28;;;;;;;4.45;2.13;;;10.30;99.90;;;10.47;95.65;102214.78;5231216;28;20045;-88
2021/12/13 10:16:07;;;;;;;8.05;3.15;;;10.30;99.90;;;10.51;96.24;102215.88;5232267;28;20049;-85
2021/12/13 10:18:43;;;;;;;6.10;2.75;;;10.40;99.90;;;10.59;95.77;102219.81;5231824;28;20076;-87
2021/12/13 10:21:20;;;;;;;6.38;2.80;;;10.40;99.90;;;10.67;94.80;102220.25;5231524;28;20055;-88
2021/12/13 10:23:59;;;;;;;7.07;2.95;;;10.50;99.90;;;10.68;94.51;102222.94;5236536;28;20546;-87
2021/12/13 10:26:36;;;;;;;6.72;3.00;;;10.50;99.90;;;10.70;94.52;102212.59;5235863;28;20048;-89
2021/12/13 10:29:14;;;;;;;5.50;2.80;;;10.50;99.90;;;10.70;94.42;102218.72;5232099;28;20045;-89
2021/12/13 10:31:51;;;;;;;7.40;2.92;;;10.50;99.90;;;10.69;94.63;102208.19;5230923;28;20057;-86
2021/12/13 10:34:28;;;;;;;6.90;3.03;;;10.50;99.90;;;10.66;94.27;102205.41;5231716;28;20048;-87
2021/12/13 10:37:06;;;;;;;5.43;2.42;;;10.50;99.90;;;10.62;94.53;102203.44;5233216;28;20115;-87
2021/12/13 10:39:45;;;;;;;5.32;2.65;;;10.50;99.90;;;10.65;94.53;102209.72;5233871;28;20098;-87
2021/12/13 10:42:25;;;;;;;6.25;2.47;;;10.50;99.90;;;10.66;94.56;102202.81;5234813;28;20059;-87
2021/12/13 10:44:59;;;;;;;6.47;2.40;;;10.50;99.90;;;10.86;96.33;102210.94;5233987;28;20052;-86
2021/12/13 10:47:36;;;;;;;3.75;2.30;;;10.60;99.90;;;11.02;95.77;102209.16;5233366;28;20052;-86
2021/12/13 10:50:15;;;;;;;3.35;2.28;;;10.90;99.90;;;11.07;94.12;102205.09;5233331;28;20053;-87
2021/12/13 10:52:51;;;;;;;6.20;2.25;;;10.90;99.90;;;11.10;93.05;102208.78;5234352;28;20063;-87
2021/12/13 10:55:32;;;;;;;5.57;2.38;;;10.90;99.90;;;11.08;91.95;102213.03;5232836;28;20041;-85
2021/12/13 10:58:07;;;;;;;4.13;2.08;;;10.90;99.90;;;11.02;91.47;102223.13;5232963;28;20418;-86
2021/12/13 11:00:44;;;;;;;4.38;1.95;;;10.90;99.90;;;10.97;91.88;102219.38;5232250;28;20523;-86
2021/12/13 11:03:22;;;;;;;4.28;1.95;;;10.80;99.90;;;10.91;91.78;102216.41;5231672;28;20053;-86
2021/12/13 11:05:55;;;;;;;3.28;2.00;;;10.80;99.90;;;10.88;91.77;102205.78;5231347;28;20140;-86
2021/12/13 11:08:30;;;;;;;3.55;2.33;;;10.70;99.90;;;10.83;91.99;102218.59;5230613;28;20418;-86
2021/12/13 11:11:11;;;;;;;3.90;1.95;;;10.70;99.90;;;10.81;91.58;102216.69;5232915;28;20049;-87
2021/12/13 11:13:43;;;;;;;2.97;1.67;;;10.70;99.90;;;10.88;93.08;102211.00;5216029;28;20450;-88
2021/12/13 11:16:21;;;;;;;4.20;1.80;;;10.70;99.90;;;10.85;91.81;102205.63;5234587;28;20558;-88
2021/12/13 11:18:54;;;;;;;2.97;1.63;;;10.80;99.90;;;10.86;91.46;102204.81;5235150;28;20057;-86